Seago Piraeus — OXVD2 — position and weather

sailwx.info

Track history (hours):
 
Tides and Currents Weather Stations Pressure Air Temp Water Temp Dewpoint Dewpoint Depression Visibility Wind Speed Wind Dir Waves Ship Positions

Seago Piraeus

Last reported at 2017-Aug-16 21:06 UTC. Time now 2017-Aug-16 21:49 UTC.
Position N 36°32' W 001°18'.

Length 294 m; draft 9.9 m.

Type: Ship (hazmat cat A). MMSI: 219117000.

Date/timePositionNaut miles runAvg speedWind from/ knotsBaromVisibWave heightAir tempDewpointWater temp
2017-Aug-16 21:06N 36°32' W 001°18'114.8
2017-Aug-16 21:00N 36°33' W 001°16'814.6
2017-Aug-16 20:29N 36°34' W 001°06'714.8
2017-Aug-16 20:01N 36°34' W 000°58'814.9
2017-Aug-16 19:28N 36°36' W 000°48'714.7
2017-Aug-16 19:01N 36°37' W 000°39'814.9
2017-Aug-16 18:30N 36°38' W 000°30'1415.1
2017-Aug-16 17:36N 36°40' W 000°13'114.8
2017-Aug-16 17:30N 36°40' W 000°12'1114.4
2017-Aug-16 16:46N 36°42' E 000°01'514.4
2017-Aug-16 16:25N 36°43' E 000°08'714.2
2017-Aug-16 15:56N 36°43' E 000°16'614.2
2017-Aug-16 15:31N 36°44' E 000°24'914.3
2017-Aug-16 14:55N 36°46' E 000°34'614.1
2017-Aug-16 14:30N 36°46' E 000°41'713.7
2017-Aug-16 14:00N 36°47' E 000°50'713.4
2017-Aug-16 13:29N 36°48' E 000°58'713.5
2017-Aug-16 12:58N 36°49' E 001°07'614.3
2017-Aug-16 12:30N 36°50' E 001°15'715.0
2017-Aug-16 12:01N 36°51' E 001°24'814.8
2017-Aug-16 11:30N 36°52' E 001°34'1014.5
2017-Aug-16 10:46N 36°53' E 001°47'414.5
2017-Aug-16 10:29N 36°54' E 001°52'714.4
2017-Aug-16 10:00N 36°55' E 002°01'814.3
2017-Aug-16 09:25N 36°57' E 002°11'614.3
2017-Aug-16 09:00N 36°58' E 002°18'714.2
2017-Aug-16 08:30N 36°59' E 002°27'714.1
2017-Aug-16 08:00N 37°00' E 002°35'714.0
2017-Aug-16 07:30N 37°01' E 002°44'714.0
2017-Aug-16 07:00N 37°02' E 002°53'713.9
2017-Aug-16 06:30N 37°03' E 003°01'713.7
2017-Aug-16 06:00N 37°04' E 003°10'713.7
2017-Aug-16 05:30N 37°06' E 003°18'613.0
2017-Aug-16 05:01N 37°06' E 003°26'713.7
2017-Aug-16 04:30N 37°07' E 003°35'714.3
2017-Aug-16 04:00N 37°07' E 003°44'714.5
2017-Aug-16 03:30N 37°08' E 003°53'714.2
2017-Aug-16 03:00N 37°10' E 004°01'713.8
2017-Aug-16 02:30N 37°11' E 004°10'713.8
2017-Aug-16 02:00N 37°12' E 004°18'714.0
2017-Aug-16 01:30N 37°13' E 004°27'714.5
2017-Aug-16 01:00N 37°14' E 004°36'714.7
2017-Aug-16 00:31N 37°14' E 004°45'714.7
2017-Aug-16 00:00N 37°16' E 004°54'714.4
2017-Aug-15 23:30N 37°17' E 005°03'714.3
2017-Aug-15 23:00N 37°18' E 005°12'714.2
2017-Aug-15 22:30N 37°19' E 005°21'714.5
2017-Aug-15 22:01N 37°20' E 005°30'714.7
2017-Aug-15 21:30N 37°21' E 005°39'714.8
2017-Aug-15 21:00N 37°22' E 005°49'714.9
2017-Aug-15 20:30N 37°23' E 005°58'714.7
2017-Aug-15 20:00N 37°24' E 006°07'714.7
2017-Aug-15 19:30N 37°25' E 006°16'714.5
2017-Aug-15 19:00N 37°26' E 006°25'714.1
2017-Aug-15 18:30N 37°28' E 006°34'714.4
2017-Aug-15 18:00N 37°29' E 006°43'714.6
2017-Aug-15 17:30N 37°30' E 006°52'714.3
2017-Aug-15 17:00N 37°31' E 007°01'714.4
2017-Aug-15 16:30N 37°32' E 007°10'714.4
2017-Aug-15 16:00N 37°33' E 007°19'714.3
2017-Aug-15 15:30N 37°34' E 007°28'714.3
2017-Aug-15 15:00N 37°35' E 007°37'714.3
2017-Aug-15 14:30N 37°36' E 007°46'714.5
2017-Aug-15 14:00N 37°37' E 007°55'915.0
2017-Aug-15 13:24N 37°38' E 008°06'1915.2
2017-Aug-15 12:08N 37°40' E 008°30'215.0
2017-Aug-15 12:00N 37°40' E 008°33'815.1
2017-Aug-15 11:30N 37°42' E 008°42'714.6
2017-Aug-15 10:59N 37°42' E 008°51'714.5
2017-Aug-15 10:30N 37°42' E 009°00'714.5
2017-Aug-15 10:00N 37°42' E 009°10'714.2
2017-Aug-15 09:30N 37°41' E 009°19'814.3
2017-Aug-15 08:56N 37°40' E 009°29'614.3
2017-Aug-15 08:30N 37°40' E 009°36'814.3
2017-Aug-15 07:57N 37°39' E 009°47'714.2
2017-Aug-15 07:28N 37°39' E 009°55'714.1
2017-Aug-15 06:57N 37°38' E 010°04'814.3
2017-Aug-15 06:26N 37°38' E 010°14'614.1
2017-Aug-15 05:59N 37°37' E 010°22'2814.0
2017-Aug-15 03:59N 37°31' E 010°56'713.9
2017-Aug-15 03:27N 37°29' E 011°05'1113.9
2017-Aug-15 02:40N 37°24' E 011°17'314.1
2017-Aug-15 02:30N 37°22' E 011°20'714.2
2017-Aug-15 02:00N 37°19' E 011°27'714.4
2017-Aug-15 01:30N 37°16' E 011°35'714.4
2017-Aug-15 01:00N 37°12' E 011°43'714.5
2017-Aug-15 00:31N 37°08' E 011°51'714.3
2017-Aug-14 23:59N 37°05' E 011°59'714.3
2017-Aug-14 23:30N 37°03' E 012°08'714.4
2017-Aug-14 22:59N 37°01' E 012°17'714.3
2017-Aug-14 22:30N 36°59' E 012°25'714.5
2017-Aug-14 22:00N 36°57' E 012°34'714.6
2017-Aug-14 21:31N 36°56' E 012°42'714.4
2017-Aug-14 21:00N 36°53' E 012°51'714.5
2017-Aug-14 20:30N 36°51' E 012°60'714.7
2017-Aug-14 20:00N 36°49' E 013°08'714.5
2017-Aug-14 19:31N 36°47' E 013°17'714.4
2017-Aug-14 19:00N 36°44' E 013°25'714.4
2017-Aug-14 18:30N 36°42' E 013°34'714.4
2017-Aug-14 18:00N 36°40' E 013°43'714.2
2017-Aug-14 17:30N 36°38' E 013°51'714.3
2017-Aug-14 17:00N 36°36' E 013°60'714.2
2017-Aug-14 16:30N 36°33' E 014°08'714.1
2017-Aug-14 16:00N 36°31' E 014°16'713.9
2017-Aug-14 15:30N 36°29' E 014°24'713.7
2017-Aug-14 15:01N 36°27' E 014°33'713.7
2017-Aug-14 14:30N 36°26' E 014°41'713.5
2017-Aug-14 13:57N 36°24' E 014°50'613.5
2017-Aug-14 13:29N 36°22' E 014°57'57513.4
2017-Aug-12 18:28N 33°52' E 026°15'22413.5
2017-Aug-12 01:57N 32°53' E 030°34'12714.0
2017-Aug-11 16:54N 32°20' E 032°59'2813.8
2017-Aug-11 14:54N 32°13' E 033°31'1214.0
2017-Aug-11 14:00N 32°09' E 033°45'814.0
2017-Aug-11 13:26N 32°07' E 033°54'1017.8
2017-Aug-11 12:54N 32°03' E 034°04'819.0
2017-Aug-11 12:30N 32°00' E 034°12'2214.2
2017-Aug-11 10:55N 31°52' E 034°37'2 0.1
2017-Aug-10 13:55N 31°50' E 034°39'0 0.0
2017-Aug-10 13:28N 31°50' E 034°39'0 0.0
2017-Aug-10 11:28N 31°50' E 034°39'2 0.4
2017-Aug-10 05:25N 31°52' E 034°37'8 1.3
2017-Aug-09 23:10N 31°51' E 034°28'513.5
2017-Aug-09 22:48N 31°52' E 034°22'813.5
2017-Aug-09 22:11N 31°51' E 034°12'1813.7
2017-Aug-09 20:52N 31°50' E 033°51'513.5
2017-Aug-09 20:30N 31°50' E 033°45'713.4
2017-Aug-09 19:58N 31°50' E 033°37'613.3
2017-Aug-09 19:30N 31°49' E 033°30'713.3
2017-Aug-09 19:00N 31°49' E 033°22'813.4
2017-Aug-09 18:22N 31°48' E 033°12'2313.6
2017-Aug-09 16:41N 31°48' E 032°45'1313.8
2017-Aug-09 15:44N 31°47' E 032°29'313.9
2017-Aug-09 15:30N 31°46' E 032°26'914.1
2017-Aug-09 14:50N 31°46' E 032°14'1114.0
2017-Aug-09 14:02N 31°46' E 032°01'013.9
2017-Aug-09 14:00N 31°45' E 032°01'1113.7
2017-Aug-09 13:13N 31°39' E 031°50'313.5
2017-Aug-09 13:00N 31°38' E 031°48'611.0
2017-Aug-09 12:27N 31°32' E 031°46'4 0.4
2017-Aug-09 01:21N 31°28' E 031°46'0 0.0
2017-Aug-09 00:51N 31°28' E 031°46'0 0.0
2017-Aug-09 00:30N 31°28' E 031°46'0 0.0
2017-Aug-09 00:01N 31°28' E 031°46'0 0.4
2017-Aug-08 23:24N 31°28' E 031°46'2 4.5
2017-Aug-08 22:51N 31°30' E 031°46'3 8.0
2017-Aug-08 22:28N 31°33' E 031°46'3 7.0
2017-Aug-08 21:59N 31°36' E 031°49'1 2.3
2017-Aug-08 21:30N 31°36' E 031°50'0 0.2
2017-Aug-08 21:00N 31°36' E 031°50'0 0.3
2017-Aug-08 20:30N 31°36' E 031°50'0 0.6
2017-Aug-08 20:00N 31°37' E 031°50'2 3.9
2017-Aug-08 19:30N 31°38' E 031°49'11 8.5
2017-Aug-08 18:15N 31°45' E 031°40'2 8.1
2017-Aug-08 17:58N 31°45' E 031°37'4 8.0
2017-Aug-08 17:29N 31°45' E 031°32'7 7.8
2017-Aug-08 16:36N 31°45' E 031°24'2 7.8
2017-Aug-08 16:18N 31°45' E 031°22'9 8.0
2017-Aug-08 15:11N 31°44' E 031°11'3 8.1
2017-Aug-08 14:51N 31°44' E 031°08'14 8.1
2017-Aug-08 13:04N 31°43' E 030°51'  
Track history (hours):
 
Tides and Currents Weather Stations Pressure Air Temp Water Temp Dewpoint Dewpoint Depression Visibility Wind Speed Wind Dir Waves Ship Positions

Seago Piraeus

Last reported at 2017-Aug-16 21:06 UTC. Time now 2017-Aug-16 21:49 UTC.
Position N 36°32' W 001°18'.

Length 294 m; draft 9.9 m.

Type: Ship (hazmat cat A). MMSI: 219117000.

Date/timePositionNaut miles runAvg speedWind from/ knotsBaromVisibWave heightAir tempDewpointWater temp
2017-Aug-16 21:06N 36°32' W 001°18'114.8
2017-Aug-16 21:00N 36°33' W 001°16'814.6
2017-Aug-16 20:29N 36°34' W 001°06'714.8
2017-Aug-16 20:01N 36°34' W 000°58'814.9
2017-Aug-16 19:28N 36°36' W 000°48'714.7
2017-Aug-16 19:01N 36°37' W 000°39'814.9
2017-Aug-16 18:30N 36°38' W 000°30'1415.1
2017-Aug-16 17:36N 36°40' W 000°13'114.8
2017-Aug-16 17:30N 36°40' W 000°12'1114.4
2017-Aug-16 16:46N 36°42' E 000°01'514.4
2017-Aug-16 16:25N 36°43' E 000°08'714.2
2017-Aug-16 15:56N 36°43' E 000°16'614.2
2017-Aug-16 15:31N 36°44' E 000°24'914.3
2017-Aug-16 14:55N 36°46' E 000°34'614.1
2017-Aug-16 14:30N 36°46' E 000°41'713.7
2017-Aug-16 14:00N 36°47' E 000°50'713.4
2017-Aug-16 13:29N 36°48' E 000°58'713.5
2017-Aug-16 12:58N 36°49' E 001°07'614.3
2017-Aug-16 12:30N 36°50' E 001°15'715.0
2017-Aug-16 12:01N 36°51' E 001°24'814.8
2017-Aug-16 11:30N 36°52' E 001°34'1014.5
2017-Aug-16 10:46N 36°53' E 001°47'414.5
2017-Aug-16 10:29N 36°54' E 001°52'714.4
2017-Aug-16 10:00N 36°55' E 002°01'814.3
2017-Aug-16 09:25N 36°57' E 002°11'614.3
2017-Aug-16 09:00N 36°58' E 002°18'714.2
2017-Aug-16 08:30N 36°59' E 002°27'714.1
2017-Aug-16 08:00N 37°00' E 002°35'714.0
2017-Aug-16 07:30N 37°01' E 002°44'714.0
2017-Aug-16 07:00N 37°02' E 002°53'713.9
2017-Aug-16 06:30N 37°03' E 003°01'713.7
2017-Aug-16 06:00N 37°04' E 003°10'713.7
2017-Aug-16 05:30N 37°06' E 003°18'613.0
2017-Aug-16 05:01N 37°06' E 003°26'713.7
2017-Aug-16 04:30N 37°07' E 003°35'714.3
2017-Aug-16 04:00N 37°07' E 003°44'714.5
2017-Aug-16 03:30N 37°08' E 003°53'714.2
2017-Aug-16 03:00N 37°10' E 004°01'713.8
2017-Aug-16 02:30N 37°11' E 004°10'713.8
2017-Aug-16 02:00N 37°12' E 004°18'714.0
2017-Aug-16 01:30N 37°13' E 004°27'714.5
2017-Aug-16 01:00N 37°14' E 004°36'714.7
2017-Aug-16 00:31N 37°14' E 004°45'714.7
2017-Aug-16 00:00N 37°16' E 004°54'714.4
2017-Aug-15 23:30N 37°17' E 005°03'714.3
2017-Aug-15 23:00N 37°18' E 005°12'714.2
2017-Aug-15 22:30N 37°19' E 005°21'714.5
2017-Aug-15 22:01N 37°20' E 005°30'714.7
2017-Aug-15 21:30N 37°21' E 005°39'714.8
2017-Aug-15 21:00N 37°22' E 005°49'714.9
2017-Aug-15 20:30N 37°23' E 005°58'714.7
2017-Aug-15 20:00N 37°24' E 006°07'714.7
2017-Aug-15 19:30N 37°25' E 006°16'714.5
2017-Aug-15 19:00N 37°26' E 006°25'714.1
2017-Aug-15 18:30N 37°28' E 006°34'714.4
2017-Aug-15 18:00N 37°29' E 006°43'714.6
2017-Aug-15 17:30N 37°30' E 006°52'714.3
2017-Aug-15 17:00N 37°31' E 007°01'714.4
2017-Aug-15 16:30N 37°32' E 007°10'714.4
2017-Aug-15 16:00N 37°33' E 007°19'714.3
2017-Aug-15 15:30N 37°34' E 007°28'714.3
2017-Aug-15 15:00N 37°35' E 007°37'714.3
2017-Aug-15 14:30N 37°36' E 007°46'714.5
2017-Aug-15 14:00N 37°37' E 007°55'915.0
2017-Aug-15 13:24N 37°38' E 008°06'1915.2
2017-Aug-15 12:08N 37°40' E 008°30'215.0
2017-Aug-15 12:00N 37°40' E 008°33'815.1
2017-Aug-15 11:30N 37°42' E 008°42'714.6
2017-Aug-15 10:59N 37°42' E 008°51'714.5
2017-Aug-15 10:30N 37°42' E 009°00'714.5
2017-Aug-15 10:00N 37°42' E 009°10'714.2
2017-Aug-15 09:30N 37°41' E 009°19'814.3
2017-Aug-15 08:56N 37°40' E 009°29'614.3
2017-Aug-15 08:30N 37°40' E 009°36'814.3
2017-Aug-15 07:57N 37°39' E 009°47'714.2
2017-Aug-15 07:28N 37°39' E 009°55'714.1
2017-Aug-15 06:57N 37°38' E 010°04'814.3
2017-Aug-15 06:26N 37°38' E 010°14'614.1
2017-Aug-15 05:59N 37°37' E 010°22'2814.0
2017-Aug-15 03:59N 37°31' E 010°56'713.9
2017-Aug-15 03:27N 37°29' E 011°05'1113.9
2017-Aug-15 02:40N 37°24' E 011°17'314.1
2017-Aug-15 02:30N 37°22' E 011°20'714.2
2017-Aug-15 02:00N 37°19' E 011°27'714.4
2017-Aug-15 01:30N 37°16' E 011°35'714.4
2017-Aug-15 01:00N 37°12' E 011°43'714.5
2017-Aug-15 00:31N 37°08' E 011°51'714.3
2017-Aug-14 23:59N 37°05' E 011°59'714.3
2017-Aug-14 23:30N 37°03' E 012°08'714.4
2017-Aug-14 22:59N 37°01' E 012°17'714.3
2017-Aug-14 22:30N 36°59' E 012°25'714.5
2017-Aug-14 22:00N 36°57' E 012°34'714.6
2017-Aug-14 21:31N 36°56' E 012°42'714.4
2017-Aug-14 21:00N 36°53' E 012°51'714.5
2017-Aug-14 20:30N 36°51' E 012°60'714.7
2017-Aug-14 20:00N 36°49' E 013°08'714.5
2017-Aug-14 19:31N 36°47' E 013°17'714.4
2017-Aug-14 19:00N 36°44' E 013°25'714.4
2017-Aug-14 18:30N 36°42' E 013°34'714.4
2017-Aug-14 18:00N 36°40' E 013°43'714.2
2017-Aug-14 17:30N 36°38' E 013°51'714.3
2017-Aug-14 17:00N 36°36' E 013°60'714.2
2017-Aug-14 16:30N 36°33' E 014°08'714.1
2017-Aug-14 16:00N 36°31' E 014°16'713.9
2017-Aug-14 15:30N 36°29' E 014°24'713.7
2017-Aug-14 15:01N 36°27' E 014°33'713.7
2017-Aug-14 14:30N 36°26' E 014°41'713.5
2017-Aug-14 13:57N 36°24' E 014°50'613.5
2017-Aug-14 13:29N 36°22' E 014°57'57513.4
2017-Aug-12 18:28N 33°52' E 026°15'22413.5
2017-Aug-12 01:57N 32°53' E 030°34'12714.0
2017-Aug-11 16:54N 32°20' E 032°59'2813.8
2017-Aug-11 14:54N 32°13' E 033°31'1214.0
2017-Aug-11 14:00N 32°09' E 033°45'814.0
2017-Aug-11 13:26N 32°07' E 033°54'1017.8
2017-Aug-11 12:54N 32°03' E 034°04'819.0
2017-Aug-11 12:30N 32°00' E 034°12'2214.2
2017-Aug-11 10:55N 31°52' E 034°37'2 0.1
2017-Aug-10 13:55N 31°50' E 034°39'0 0.0
2017-Aug-10 13:28N 31°50' E 034°39'0 0.0
2017-Aug-10 11:28N 31°50' E 034°39'2 0.4
2017-Aug-10 05:25N 31°52' E 034°37'8 1.3
2017-Aug-09 23:10N 31°51' E 034°28'513.5
2017-Aug-09 22:48N 31°52' E 034°22'813.5
2017-Aug-09 22:11N 31°51' E 034°12'1813.7
2017-Aug-09 20:52N 31°50' E 033°51'513.5
2017-Aug-09 20:30N 31°50' E 033°45'713.4
2017-Aug-09 19:58N 31°50' E 033°37'613.3
2017-Aug-09 19:30N 31°49' E 033°30'713.3
2017-Aug-09 19:00N 31°49' E 033°22'813.4
2017-Aug-09 18:22N 31°48' E 033°12'2313.6
2017-Aug-09 16:41N 31°48' E 032°45'1313.8
2017-Aug-09 15:44N 31°47' E 032°29'313.9
2017-Aug-09 15:30N 31°46' E 032°26'914.1
2017-Aug-09 14:50N 31°46' E 032°14'1114.0
2017-Aug-09 14:02N 31°46' E 032°01'013.9
2017-Aug-09 14:00N 31°45' E 032°01'1113.7
2017-Aug-09 13:13N 31°39' E 031°50'313.5
2017-Aug-09 13:00N 31°38' E 031°48'611.0
2017-Aug-09 12:27N 31°32' E 031°46'4 0.4
2017-Aug-09 01:21N 31°28' E 031°46'0 0.0
2017-Aug-09 00:51N 31°28' E 031°46'0 0.0
2017-Aug-09 00:30N 31°28' E 031°46'0 0.0
2017-Aug-09 00:01N 31°28' E 031°46'0 0.4
2017-Aug-08 23:24N 31°28' E 031°46'2 4.5
2017-Aug-08 22:51N 31°30' E 031°46'3 8.0
2017-Aug-08 22:28N 31°33' E 031°46'3 7.0
2017-Aug-08 21:59N 31°36' E 031°49'1 2.3
2017-Aug-08 21:30N 31°36' E 031°50'0 0.2
2017-Aug-08 21:00N 31°36' E 031°50'0 0.3
2017-Aug-08 20:30N 31°36' E 031°50'0 0.6
2017-Aug-08 20:00N 31°37' E 031°50'2 3.9
2017-Aug-08 19:30N 31°38' E 031°49'11 8.5
2017-Aug-08 18:15N 31°45' E 031°40'2 8.1
2017-Aug-08 17:58N 31°45' E 031°37'4 8.0
2017-Aug-08 17:29N 31°45' E 031°32'7 7.8
2017-Aug-08 16:36N 31°45' E 031°24'2 7.8
2017-Aug-08 16:18N 31°45' E 031°22'9 8.0
2017-Aug-08 15:11N 31°44' E 031°11'3 8.1
2017-Aug-08 14:51N 31°44' E 031°08'14 8.1
2017-Aug-08 13:04N 31°43' E 030°51'  

Dump ship's entire track history